createdAt,value
2023-04-18T00:02:18.152Z,10.86
2023-04-18T00:04:47.629Z,10.82
2023-04-18T00:07:15.178Z,10.85
2023-04-18T00:09:41.886Z,10.62
2023-04-18T00:12:08.208Z,10.48
2023-04-18T00:14:35.241Z,10.39
2023-04-18T00:17:02.374Z,10.20
2023-04-18T00:19:28.698Z,10.16
2023-04-18T00:21:55.848Z,10.06
2023-04-18T00:24:22.187Z,9.92
2023-04-18T00:26:48.887Z,9.91
2023-04-18T00:29:15.285Z,9.79
2023-04-18T00:31:41.578Z,9.75
2023-04-18T00:34:07.868Z,9.74
2023-04-18T00:36:34.141Z,9.82
2023-04-18T00:39:00.431Z,9.86
2023-04-18T00:41:28.146Z,9.94
2023-04-18T00:43:54.824Z,9.93
2023-04-18T00:46:21.139Z,9.88
2023-04-18T00:48:47.485Z,10.14
2023-04-18T00:51:13.819Z,10.15
2023-04-18T00:53:40.736Z,10.14
2023-04-18T00:56:07.482Z,10.18
2023-04-18T00:58:33.782Z,10.25
2023-04-18T01:01:00.250Z,10.37
2023-04-18T01:03:26.623Z,10.30
2023-04-18T01:05:57.355Z,10.30
2023-04-18T01:08:23.699Z,10.12
2023-04-18T01:10:50.297Z,9.89
2023-04-18T01:13:17.147Z,9.81
2023-04-18T01:15:46.808Z,9.78
2023-04-18T01:18:13.322Z,9.87
2023-04-18T01:20:41.341Z,9.83
2023-04-18T01:23:10.154Z,9.75
2023-04-18T01:25:36.440Z,9.67
2023-04-18T01:28:04.452Z,9.53
2023-04-18T01:30:31.022Z,9.52
2023-04-18T01:32:57.372Z,9.57
2023-04-18T01:35:23.663Z,9.45
2023-04-18T01:37:49.935Z,9.46
2023-04-18T01:40:16.238Z,9.52
2023-04-18T01:42:42.589Z,9.49
2023-04-18T01:45:08.991Z,9.45
2023-04-18T01:47:35.655Z,9.47
2023-04-18T01:50:02.437Z,9.55
2023-04-18T01:52:28.709Z,9.55
2023-04-18T01:54:54.997Z,9.51
2023-04-18T01:57:21.278Z,9.49
2023-04-18T01:59:47.561Z,9.55
2023-04-18T02:02:13.972Z,9.59
2023-04-18T02:04:40.764Z,9.63
2023-04-18T02:07:07.081Z,9.66
2023-04-18T02:09:33.415Z,9.56
2023-04-18T02:12:01.773Z,9.57
2023-04-18T02:14:29.950Z,9.52
2023-04-18T02:16:56.297Z,9.45
2023-04-18T02:19:24.227Z,9.44
2023-04-18T02:21:50.826Z,9.36
2023-04-18T02:24:17.279Z,9.20
2023-04-18T02:26:43.768Z,9.13
2023-04-18T02:29:10.676Z,9.03
2023-04-18T02:31:37.414Z,9.19
2023-04-18T02:34:03.821Z,9.24
2023-04-18T02:36:30.870Z,9.20
2023-04-18T02:38:57.151Z,9.23
2023-04-18T02:41:23.477Z,9.33
2023-04-18T02:43:49.783Z,9.29
2023-04-18T02:46:16.140Z,9.32
2023-04-18T02:48:42.427Z,9.33
2023-04-18T02:51:08.779Z,9.40
2023-04-18T02:53:35.168Z,9.42
2023-04-18T02:56:01.514Z,9.52
2023-04-18T02:58:27.815Z,9.39
2023-04-18T03:00:54.500Z,9.31
2023-04-18T03:03:20.996Z,9.29
2023-04-18T03:05:47.316Z,9.17
2023-04-18T03:08:13.629Z,9.08
2023-04-18T03:10:40.058Z,9.06
2023-04-18T03:13:06.412Z,8.97
2023-04-18T03:15:32.730Z,8.88
2023-04-18T03:17:59.036Z,8.84
2023-04-18T03:20:25.556Z,8.88
2023-04-18T03:22:52.443Z,8.88
2023-04-18T03:25:18.724Z,8.89
2023-04-18T03:27:45.076Z,8.85
2023-04-18T03:30:11.411Z,8.89
2023-04-18T03:32:38.509Z,8.91
2023-04-18T03:35:05.037Z,8.89
2023-04-18T03:37:31.334Z,8.84
2023-04-18T03:39:57.638Z,8.80
2023-04-18T03:42:24.101Z,8.76
2023-04-18T03:44:50.514Z,8.74
2023-04-18T03:47:16.947Z,8.77
2023-04-18T03:49:43.239Z,8.84
2023-04-18T03:52:09.534Z,8.91
2023-04-18T03:54:35.865Z,8.94
2023-04-18T03:57:03.015Z,8.97
2023-04-18T03:59:29.528Z,8.93
2023-04-18T04:01:56.085Z,8.84
2023-04-18T04:04:22.451Z,8.71
2023-04-18T04:06:48.905Z,8.64
2023-04-18T04:09:15.279Z,8.59
2023-04-18T04:11:41.554Z,8.62
2023-04-18T04:14:07.863Z,8.54
2023-04-18T04:16:34.170Z,8.54
2023-04-18T04:19:00.463Z,8.39
2023-04-18T04:21:27.552Z,8.38
2023-04-18T04:23:53.843Z,8.36
2023-04-18T04:26:23.208Z,8.32
2023-04-18T04:28:49.722Z,8.42
2023-04-18T04:31:16.329Z,8.35
2023-04-18T04:33:43.551Z,8.27
2023-04-18T04:36:09.842Z,8.30
2023-04-18T04:38:38.337Z,8.27
2023-04-18T04:41:06.672Z,8.31
2023-04-18T04:43:33.358Z,8.21
2023-04-18T04:45:59.671Z,8.27
2023-04-18T04:48:26.042Z,8.34
2023-04-18T04:50:52.960Z,8.45
2023-04-18T04:53:19.262Z,8.41
2023-04-18T04:55:45.710Z,8.41
2023-04-18T04:58:12.007Z,8.53
2023-04-18T05:00:38.301Z,8.61
2023-04-18T05:03:04.688Z,8.53
2023-04-18T05:05:31.051Z,8.41
2023-04-18T05:07:57.331Z,8.34
2023-04-18T05:10:23.931Z,8.46
2023-04-18T05:12:50.272Z,8.43
2023-04-18T05:15:16.577Z,8.41
2023-04-18T05:17:42.860Z,8.47
2023-04-18T05:20:09.973Z,8.54
2023-04-18T05:22:36.333Z,8.65
2023-04-18T05:25:02.626Z,8.66
2023-04-18T05:27:28.940Z,8.69
2023-04-18T05:29:55.299Z,8.69
2023-04-18T05:32:21.628Z,8.58
2023-04-18T05:34:48.148Z,8.63
2023-04-18T05:37:14.531Z,8.84
2023-04-18T05:39:41.542Z,9.06
2023-04-18T05:42:07.835Z,9.05
2023-04-18T05:44:34.115Z,9.12
2023-04-18T05:47:00.462Z,9.23
2023-04-18T05:49:26.737Z,9.30
2023-04-18T05:51:53.091Z,9.31
2023-04-18T05:54:21.318Z,9.38
2023-04-18T05:56:47.714Z,9.34
2023-04-18T05:59:13.982Z,9.38
2023-04-18T06:01:40.258Z,9.47
2023-04-18T06:04:07.467Z,9.63
2023-04-18T06:06:34.681Z,9.77
2023-04-18T06:09:00.959Z,9.93
2023-04-18T06:11:27.281Z,10.27
2023-04-18T06:13:55.937Z,10.50
2023-04-18T06:16:22.261Z,11.24
2023-04-18T06:18:48.570Z,12.31
2023-04-18T06:21:14.864Z,12.31
2023-04-18T06:23:41.165Z,11.74
2023-04-18T06:26:07.707Z,11.49
2023-04-18T06:28:34.007Z,11.26
2023-04-18T06:31:00.291Z,11.16
2023-04-18T06:33:26.562Z,11.15
2023-04-18T06:35:52.878Z,11.07
2023-04-18T06:38:19.180Z,11.01
2023-04-18T06:40:45.471Z,11.01
2023-04-18T06:43:11.766Z,10.99
2023-04-18T06:45:38.106Z,11.01
2023-04-18T06:48:04.593Z,10.97
2023-04-18T06:50:31.013Z,11.01
2023-04-18T06:52:57.356Z,11.03
2023-04-18T06:55:23.640Z,11.09
2023-04-18T06:57:49.947Z,11.14
2023-04-18T07:00:16.384Z,11.16
2023-04-18T07:02:42.817Z,11.05
2023-04-18T07:05:09.297Z,11.11
2023-04-18T07:07:35.605Z,11.01
2023-04-18T07:10:01.959Z,11.08
2023-04-18T07:12:28.279Z,11.18
2023-04-18T07:14:54.617Z,11.28
2023-04-18T07:17:20.985Z,11.35
2023-04-18T07:19:47.310Z,11.34
2023-04-18T07:22:13.621Z,11.37
2023-04-18T07:24:39.971Z,11.32
2023-04-18T07:27:06.462Z,11.39
2023-04-18T07:29:32.844Z,11.40
2023-04-18T07:31:59.173Z,11.43
2023-04-18T07:34:27.079Z,11.36
2023-04-18T07:36:53.349Z,11.42
2023-04-18T07:39:19.654Z,11.38
2023-04-18T07:41:46.053Z,11.53
2023-04-18T07:44:12.585Z,11.67
2023-04-18T07:46:39.148Z,11.73
2023-04-18T07:49:06.049Z,11.70
2023-04-18T07:51:32.373Z,11.75
2023-04-18T07:53:59.225Z,11.74
2023-04-18T07:56:25.826Z,11.71
2023-04-18T07:58:52.329Z,11.70
2023-04-18T08:01:20.865Z,11.81
2023-04-18T08:03:48.154Z,11.83
2023-04-18T08:06:14.618Z,11.88
2023-04-18T08:08:41.004Z,11.88
2023-04-18T08:11:07.305Z,11.96
2023-04-18T08:13:33.626Z,12.02
2023-04-18T08:16:00.100Z,12.07
2023-04-18T08:18:26.593Z,11.86
2023-04-18T08:20:52.871Z,11.99
2023-04-18T08:23:19.143Z,12.08
2023-04-18T08:25:45.701Z,12.18
2023-04-18T08:28:12.478Z,12.23
2023-04-18T08:30:38.770Z,12.28
2023-04-18T08:33:05.176Z,12.28
2023-04-18T08:35:31.535Z,12.30
2023-04-18T08:37:57.822Z,12.23
2023-04-18T08:40:24.137Z,12.19
2023-04-18T08:42:51.248Z,12.04
2023-04-18T08:45:17.570Z,11.79
2023-04-18T08:47:43.962Z,11.72
2023-04-18T08:50:10.378Z,11.44
2023-04-18T08:52:37.591Z,11.44
2023-04-18T08:55:04.231Z,11.52
2023-04-18T08:57:31.195Z,11.71
2023-04-18T08:59:57.613Z,11.64
2023-04-18T09:02:35.027Z,11.67
2023-04-18T09:05:02.333Z,11.55
2023-04-18T09:07:28.838Z,11.68
2023-04-18T09:09:57.159Z,11.76
2023-04-18T09:12:24.038Z,11.63
2023-04-18T09:14:51.418Z,11.73
2023-04-18T09:17:33.502Z,12.03
2023-04-18T09:20:00.122Z,11.78
2023-04-18T09:22:27.083Z,11.77
2023-04-18T09:24:55.469Z,11.88
2023-04-18T09:27:24.735Z,12.13
2023-04-18T09:29:51.865Z,12.10
2023-04-18T09:32:25.026Z,12.12
2023-04-18T09:34:54.240Z,12.25
2023-04-18T09:37:21.151Z,12.29
2023-04-18T09:39:47.470Z,12.20
2023-04-18T09:42:13.946Z,12.27
2023-04-18T09:44:58.397Z,12.49
2023-04-18T09:47:24.757Z,12.46
2023-04-18T09:49:51.204Z,12.52
2023-04-18T09:52:17.997Z,12.41
2023-04-18T09:54:46.570Z,12.46
2023-04-18T09:57:14.460Z,12.58
2023-04-18T10:00:00.192Z,12.65
2023-04-18T10:02:26.535Z,12.67
2023-04-18T10:04:52.997Z,12.91
2023-04-18T10:07:19.604Z,12.89
2023-04-18T10:09:46.001Z,13.00
2023-04-18T10:12:12.531Z,13.08
2023-04-18T10:14:42.851Z,13.25
2023-04-18T10:17:09.508Z,13.20
2023-04-18T10:19:35.864Z,13.24
2023-04-18T10:22:02.176Z,13.45
2023-04-18T10:24:52.871Z,13.48
2023-04-18T10:27:19.739Z,13.57
2023-04-18T10:29:50.075Z,13.48
2023-04-18T10:32:16.948Z,13.60
2023-04-18T10:34:43.424Z,13.80
2023-04-18T10:37:09.781Z,13.98
2023-04-18T10:39:48.520Z,13.94
2023-04-18T10:42:14.856Z,14.01
2023-04-18T10:44:41.153Z,13.82
2023-04-18T10:47:07.590Z,13.88
2023-04-18T10:49:34.647Z,13.95
2023-04-18T10:52:01.285Z,13.96
2023-04-18T10:54:46.559Z,13.75
2023-04-18T10:57:13.749Z,13.88
2023-04-18T10:59:41.562Z,13.97
2023-04-18T11:02:13.898Z,14.05
2023-04-18T11:04:40.274Z,14.00
2023-04-18T11:07:06.609Z,13.85
2023-04-18T11:09:32.998Z,13.99
2023-04-18T11:12:06.439Z,14.16
2023-04-18T11:14:41.935Z,14.06
2023-04-18T11:17:17.840Z,14.13
2023-04-18T11:19:44.184Z,14.28
2023-04-18T11:22:10.794Z,14.29
2023-04-18T11:24:37.083Z,14.35
2023-04-18T11:27:03.456Z,14.39
2023-04-18T11:29:29.790Z,14.35
2023-04-18T11:31:58.330Z,14.46
2023-04-18T11:34:28.461Z,14.62
2023-04-18T11:36:54.744Z,14.53
2023-04-18T11:39:21.047Z,14.56
2023-04-18T11:41:50.502Z,14.22
2023-04-18T11:44:23.367Z,14.01
2023-04-18T11:46:51.283Z,13.76
2023-04-18T11:49:27.312Z,13.89
2023-04-18T11:51:53.681Z,13.93
2023-04-18T11:54:38.948Z,14.29
2023-04-18T11:57:05.870Z,14.45
2023-04-18T11:59:32.232Z,14.26
2023-04-18T12:02:15.559Z,14.45
2023-04-18T12:04:50.003Z,14.09
2023-04-18T12:07:16.540Z,14.31
2023-04-18T12:09:42.821Z,14.33
2023-04-18T12:12:09.245Z,14.40
2023-04-18T12:14:35.641Z,14.56
2023-04-18T12:17:03.038Z,14.72
2023-04-18T12:19:29.338Z,14.94
2023-04-18T12:21:56.688Z,14.97
2023-04-18T12:24:27.358Z,14.90
2023-04-18T12:26:53.650Z,14.69
2023-04-18T12:29:19.968Z,14.68
2023-04-18T12:31:46.792Z,14.75
2023-04-18T12:34:13.652Z,14.38
2023-04-18T12:36:40.385Z,14.20
2023-04-18T12:39:06.736Z,14.21
2023-04-18T12:41:33.096Z,14.74
2023-04-18T12:43:59.638Z,14.66
2023-04-18T12:46:25.967Z,14.37
2023-04-18T12:48:52.310Z,14.44
2023-04-18T12:51:18.707Z,14.21
2023-04-18T12:53:45.010Z,14.54
2023-04-18T12:56:11.340Z,14.24
2023-04-18T12:58:37.661Z,14.47
2023-04-18T13:01:04.742Z,15.23
2023-04-18T13:03:31.805Z,15.48
2023-04-18T13:05:58.194Z,15.77
2023-04-18T13:08:24.473Z,15.98
2023-04-18T13:10:50.774Z,15.55
2023-04-18T13:13:17.130Z,15.66
2023-04-18T13:15:43.413Z,15.73
2023-04-18T13:18:09.711Z,15.60
2023-04-18T13:20:36.553Z,15.73
2023-04-18T13:23:02.943Z,15.69
2023-04-18T13:25:29.246Z,15.77
2023-04-18T13:27:56.248Z,15.89
2023-04-18T13:30:22.562Z,16.02
2023-04-18T13:32:48.928Z,16.10
2023-04-18T13:35:15.307Z,16.12
2023-04-18T13:37:41.676Z,15.98
2023-04-18T13:40:08.210Z,15.56
2023-04-18T13:42:35.299Z,15.33
2023-04-18T13:45:01.682Z,15.52
2023-04-18T13:47:28.164Z,15.85
2023-04-18T13:49:54.504Z,15.86
2023-04-18T13:52:20.774Z,15.99
2023-04-18T13:54:47.991Z,15.64
2023-04-18T13:57:14.634Z,15.60
2023-04-18T13:59:40.990Z,15.25
2023-04-18T14:02:07.985Z,15.72
2023-04-18T14:04:34.695Z,15.41
2023-04-18T14:07:01.550Z,15.84
2023-04-18T14:09:27.914Z,15.88
2023-04-18T14:11:54.234Z,15.91
2023-04-18T14:14:20.667Z,15.80
2023-04-18T14:16:47.036Z,15.49
2023-04-18T14:19:13.741Z,15.37
2023-04-18T14:21:40.453Z,15.51
2023-04-18T14:24:07.946Z,15.67
2023-04-18T14:26:34.219Z,15.96
2023-04-18T14:29:00.910Z,16.12
2023-04-18T14:31:28.105Z,15.97
2023-04-18T14:33:54.457Z,16.20
2023-04-18T14:36:20.879Z,16.10
2023-04-18T14:38:48.175Z,16.01
2023-04-18T14:41:14.632Z,16.03
2023-04-18T14:43:40.951Z,15.83
2023-04-18T14:46:13.741Z,15.75
2023-04-18T14:48:40.124Z,15.98
2023-04-18T14:51:06.968Z,16.14
2023-04-18T14:53:33.309Z,15.99
2023-04-18T14:55:59.592Z,15.76
2023-04-18T14:58:25.868Z,15.70
2023-04-18T15:00:52.186Z,15.81
2023-04-18T15:03:18.553Z,16.39
2023-04-18T15:05:46.531Z,16.42
2023-04-18T15:08:13.060Z,16.66
2023-04-18T15:10:40.245Z,16.85
2023-04-18T15:13:06.544Z,16.90
2023-04-18T15:15:35.497Z,16.93
2023-04-18T15:18:02.432Z,16.75
2023-04-18T15:20:31.455Z,16.97
2023-04-18T15:22:57.811Z,16.80
2023-04-18T15:25:25.930Z,16.95
2023-04-18T15:27:52.400Z,16.99
2023-04-18T15:30:20.527Z,16.71
2023-04-18T15:32:47.568Z,16.73
2023-04-18T15:35:13.994Z,17.04
2023-04-18T15:37:40.356Z,16.66
2023-04-18T15:40:09.345Z,16.90
2023-04-18T15:42:35.750Z,16.78
2023-04-18T15:45:02.057Z,16.89
2023-04-18T15:47:37.169Z,17.12
2023-04-18T15:50:03.638Z,17.02
2023-04-18T15:52:29.995Z,16.69
2023-04-18T15:54:57.130Z,16.51
2023-04-18T15:57:23.439Z,16.72
2023-04-18T15:59:49.751Z,16.82
2023-04-18T16:02:16.042Z,16.61
2023-04-18T16:04:42.501Z,16.36
2023-04-18T16:07:09.031Z,16.23
2023-04-18T16:09:35.650Z,16.09
2023-04-18T16:12:03.181Z,16.13
2023-04-18T16:14:30.346Z,16.03
2023-04-18T16:16:58.981Z,16.29
2023-04-18T16:19:25.303Z,15.95
2023-04-18T16:21:51.746Z,15.89
2023-04-18T16:24:18.100Z,16.14
2023-04-18T16:26:44.378Z,16.21
2023-04-18T16:29:10.693Z,16.46
2023-04-18T16:31:37.098Z,16.06
2023-04-18T16:34:03.428Z,15.91
2023-04-18T16:36:29.720Z,15.57
2023-04-18T16:38:56.075Z,15.65
2023-04-18T16:41:22.366Z,15.38
2023-04-18T16:43:48.737Z,15.42
2023-04-18T16:46:15.346Z,15.83
2023-04-18T16:48:41.731Z,15.77
2023-04-18T16:51:08.036Z,15.78
2023-04-18T16:53:34.358Z,15.62
2023-04-18T16:56:00.849Z,15.58
2023-04-18T16:58:27.160Z,15.57
2023-04-18T17:00:53.474Z,15.57
2023-04-18T17:03:19.934Z,15.72
2023-04-18T17:05:46.460Z,15.64
2023-04-18T17:08:12.780Z,15.85
2023-04-18T17:10:39.092Z,15.61
2023-04-18T17:13:05.393Z,15.80
2023-04-18T17:15:31.710Z,15.96
2023-04-18T17:18:00.189Z,15.80
2023-04-18T17:20:27.893Z,15.93
2023-04-18T17:22:54.385Z,15.90
2023-04-18T17:25:20.810Z,16.19
2023-04-18T17:27:47.096Z,16.22
2023-04-18T17:30:13.391Z,15.93
2023-04-18T17:32:45.456Z,16.04
2023-04-18T17:35:12.202Z,15.89
2023-04-18T17:37:38.541Z,16.03
2023-04-18T17:40:09.721Z,15.74
2023-04-18T17:42:36.777Z,15.92
2023-04-18T17:45:03.846Z,16.25
2023-04-18T17:47:31.601Z,16.18
2023-04-18T17:49:57.910Z,16.39
2023-04-18T17:52:24.191Z,16.10
2023-04-18T17:54:50.488Z,16.29
2023-04-18T17:57:16.783Z,16.48
2023-04-18T17:59:43.094Z,16.40
2023-04-18T18:02:11.559Z,16.54
2023-04-18T18:04:38.479Z,16.50
2023-04-18T18:07:04.814Z,16.31
2023-04-18T18:09:31.098Z,16.41
2023-04-18T18:11:58.549Z,16.41
2023-04-18T18:14:24.894Z,16.22
2023-04-18T18:16:51.321Z,16.09
2023-04-18T18:19:17.670Z,15.95
2023-04-18T18:21:43.977Z,15.90
2023-04-18T18:24:10.720Z,15.83
2023-04-18T18:26:37.030Z,15.63
2023-04-18T18:29:09.040Z,15.47
2023-04-18T18:31:35.649Z,15.35
2023-04-18T18:34:01.985Z,15.29
2023-04-18T18:36:28.452Z,15.22
2023-04-18T18:38:54.774Z,15.17
2023-04-18T18:41:22.482Z,15.20
2023-04-18T18:43:49.015Z,15.18
2023-04-18T18:46:15.590Z,15.10
2023-04-18T18:48:41.989Z,15.03
2023-04-18T18:51:08.758Z,14.81
2023-04-18T18:53:35.053Z,14.67
2023-04-18T18:56:01.415Z,14.64
2023-04-18T18:58:27.783Z,14.67
2023-04-18T19:00:56.075Z,14.72
2023-04-18T19:03:22.599Z,14.70
2023-04-18T19:05:48.964Z,14.56
2023-04-18T19:08:15.421Z,14.39
2023-04-18T19:10:41.868Z,14.29
2023-04-18T19:13:08.169Z,14.11
2023-04-18T19:15:34.487Z,13.91
2023-04-18T19:18:01.520Z,13.86
2023-04-18T19:20:29.235Z,13.77
2023-04-18T19:22:55.698Z,13.78
2023-04-18T19:25:21.976Z,13.83
2023-04-18T19:27:48.311Z,13.50
2023-04-18T19:30:14.611Z,13.42
2023-04-18T19:32:40.970Z,13.38
2023-04-18T19:35:09.739Z,13.30
2023-04-18T19:37:36.113Z,13.17
2023-04-18T19:40:02.759Z,13.01
2023-04-18T19:42:29.165Z,12.97
2023-04-18T19:44:56.306Z,12.99
2023-04-18T19:47:22.760Z,12.95
2023-04-18T19:49:49.061Z,13.01
2023-04-18T19:52:16.481Z,13.08
2023-04-18T19:54:42.805Z,13.13
2023-04-18T19:57:09.095Z,13.20
2023-04-18T19:59:35.382Z,13.32
2023-04-18T20:02:04.353Z,13.23
2023-04-18T20:04:34.253Z,13.07
2023-04-18T20:07:02.279Z,13.19
2023-04-18T20:09:28.583Z,13.19
2023-04-18T20:11:54.915Z,13.11
2023-04-18T20:14:21.236Z,13.07
2023-04-18T20:16:49.467Z,13.04
2023-04-18T20:19:17.723Z,12.94
2023-04-18T20:21:44.269Z,12.91
2023-04-18T20:24:10.606Z,12.86
2023-04-18T20:26:37.055Z,12.77
2023-04-18T20:29:03.826Z,12.68
2023-04-18T20:31:30.179Z,12.74
2023-04-18T20:33:56.500Z,12.77
2023-04-18T20:36:23.508Z,12.80
2023-04-18T20:38:50.285Z,12.77
2023-04-18T20:41:23.998Z,12.70
2023-04-18T20:43:53.558Z,12.65
2023-04-18T20:46:19.928Z,12.70
2023-04-18T20:48:46.271Z,12.50
2023-04-18T20:51:12.545Z,12.52
2023-04-18T20:53:38.854Z,12.43
2023-04-18T20:56:05.260Z,12.38
2023-04-18T20:58:31.571Z,12.26
2023-04-18T21:00:57.946Z,12.30
2023-04-18T21:03:24.512Z,12.31
2023-04-18T21:05:50.935Z,12.34
2023-04-18T21:08:17.211Z,12.29
2023-04-18T21:10:43.534Z,12.21
2023-04-18T21:13:12.352Z,12.12
2023-04-18T21:15:39.042Z,12.02
2023-04-18T21:18:05.556Z,12.03
2023-04-18T21:20:34.081Z,11.92
2023-04-18T21:23:00.354Z,11.91
2023-04-18T21:25:26.651Z,11.87
2023-04-18T21:27:52.926Z,11.93
2023-04-18T21:30:19.309Z,12.09
2023-04-18T21:32:46.061Z,12.17
2023-04-18T21:35:12.460Z,12.03
2023-04-18T21:37:38.753Z,11.88
2023-04-18T21:40:05.363Z,11.82
2023-04-18T21:42:31.706Z,11.76
2023-04-18T21:44:58.063Z,11.73
2023-04-18T21:47:25.804Z,11.74
2023-04-18T21:49:52.154Z,11.71
2023-04-18T21:52:18.414Z,11.70
2023-04-18T21:54:44.726Z,11.74
2023-04-18T21:57:11.043Z,11.75
2023-04-18T21:59:37.322Z,11.76
2023-04-18T22:02:04.775Z,11.78
2023-04-18T22:04:31.219Z,11.77
2023-04-18T22:06:57.540Z,11.69
2023-04-18T22:09:23.865Z,11.68
2023-04-18T22:11:51.715Z,11.64
2023-04-18T22:14:19.942Z,11.58
2023-04-18T22:16:46.297Z,11.52
2023-04-18T22:19:13.549Z,11.47
2023-04-18T22:21:39.822Z,11.51
2023-04-18T22:24:06.480Z,11.38
2023-04-18T22:26:32.743Z,11.42
2023-04-18T22:28:59.061Z,11.45
2023-04-18T22:31:25.434Z,11.54
2023-04-18T22:33:51.863Z,11.60
2023-04-18T22:36:18.145Z,11.59
2023-04-18T22:38:44.422Z,11.59
2023-04-18T22:41:10.717Z,11.57
2023-04-18T22:43:37.041Z,11.55
2023-04-18T22:46:03.607Z,11.49
2023-04-18T22:48:29.962Z,11.53
2023-04-18T22:50:56.279Z,11.42
2023-04-18T22:53:22.970Z,11.35
2023-04-18T22:55:49.304Z,11.27
2023-04-18T22:58:15.699Z,11.17
2023-04-18T23:00:42.031Z,11.12
2023-04-18T23:03:08.602Z,11.12
2023-04-18T23:05:35.270Z,11.13
2023-04-18T23:08:01.550Z,11.09
2023-04-18T23:10:27.830Z,11.18
2023-04-18T23:12:54.196Z,11.20
2023-04-18T23:15:22.703Z,11.20
2023-04-18T23:17:50.979Z,11.04
2023-04-18T23:20:17.327Z,10.96
2023-04-18T23:22:43.829Z,10.94
2023-04-18T23:25:10.196Z,11.04
2023-04-18T23:27:36.496Z,11.13
2023-04-18T23:30:02.830Z,11.03
2023-04-18T23:32:29.244Z,10.92
2023-04-18T23:34:55.599Z,11.00
2023-04-18T23:37:21.916Z,10.99
2023-04-18T23:39:48.412Z,11.04
2023-04-18T23:42:14.708Z,10.98
2023-04-18T23:44:40.994Z,10.83
2023-04-18T23:47:07.300Z,10.88
2023-04-18T23:49:33.604Z,11.07
2023-04-18T23:51:59.878Z,11.16
2023-04-18T23:54:26.171Z,11.16
2023-04-18T23:56:52.489Z,10.96
2023-04-18T23:59:18.812Z,10.84
